createdAt,value
2023-02-06T00:02:47.717Z,26.80
2023-02-06T00:07:50.619Z,33.10
2023-02-06T00:12:54.536Z,32.20
2023-02-06T00:23:00.095Z,23.70
2023-02-06T00:28:02.956Z,29.50
2023-02-06T00:33:05.798Z,30.40
2023-02-06T00:38:11.523Z,34.70
2023-02-06T00:43:14.402Z,28.80
2023-02-06T00:48:17.207Z,40.40
2023-02-06T00:53:20.732Z,40.10
2023-02-06T00:58:23.605Z,34.10
2023-02-06T01:03:26.510Z,39.70
2023-02-06T01:08:29.326Z,31.70
2023-02-06T01:13:32.220Z,34.80
2023-02-06T01:18:35.155Z,34.00
2023-02-06T01:23:42.025Z,32.50
2023-02-06T01:28:46.954Z,36.80
2023-02-06T01:33:50.743Z,37.20
2023-02-06T01:38:54.944Z,46.40
2023-02-06T01:44:24.335Z,36.90
2023-02-06T01:49:55.332Z,31.40
2023-02-06T01:55:04.347Z,28.60
2023-02-06T02:00:10.257Z,36.10
2023-02-06T02:05:13.479Z,33.10
2023-02-06T02:10:16.356Z,35.50
2023-02-06T02:15:21.182Z,37.20
2023-02-06T02:20:57.788Z,33.80
2023-02-06T02:26:41.925Z,37.60
2023-02-06T02:32:03.930Z,32.70
2023-02-06T02:37:49.316Z,30.80
2023-02-06T02:43:54.054Z,32.10
2023-02-06T02:49:04.453Z,33.20
2023-02-06T02:54:07.938Z,38.20
2023-02-06T02:59:34.004Z,40.20
2023-02-06T03:04:48.347Z,38.60
2023-02-06T03:10:14.928Z,43.70
2023-02-06T03:15:46.320Z,46.90
2023-02-06T03:20:51.530Z,39.40
2023-02-06T03:26:00.586Z,42.20
2023-02-06T03:31:07.852Z,37.40
2023-02-06T03:36:17.147Z,39.30
2023-02-06T03:41:27.823Z,39.20
2023-02-06T03:46:32.927Z,44.70
2023-02-06T03:51:43.749Z,49.70
2023-02-06T03:57:03.449Z,50.00
2023-02-06T04:02:07.297Z,38.50
2023-02-06T04:12:33.644Z,44.20
2023-02-06T04:17:58.915Z,43.20
2023-02-06T04:23:00.698Z,36.50
2023-02-06T04:28:04.626Z,40.80
2023-02-06T04:33:07.443Z,42.10
2023-02-06T04:38:10.264Z,42.50
2023-02-06T04:43:13.192Z,38.40
2023-02-06T04:48:16.088Z,79.70
2023-02-06T04:53:19.407Z,129.00
2023-02-06T04:58:22.313Z,72.80
2023-02-06T05:03:25.430Z,35.00
2023-02-06T05:08:28.435Z,30.80
2023-02-06T05:13:33.967Z,34.50
2023-02-06T05:18:37.773Z,36.50
2023-02-06T05:23:41.037Z,41.20
2023-02-06T05:28:43.924Z,38.30
2023-02-06T05:33:52.582Z,37.20
2023-02-06T05:38:55.639Z,43.00
2023-02-06T05:43:58.611Z,46.30
2023-02-06T05:49:01.919Z,50.50
2023-02-06T05:54:04.856Z,50.00
2023-02-06T05:59:07.746Z,43.10
2023-02-06T06:04:10.614Z,50.60
2023-02-06T06:09:13.490Z,55.50
2023-02-06T06:14:16.336Z,50.70
2023-02-06T06:19:19.331Z,46.10
2023-02-06T06:24:22.184Z,39.60
2023-02-06T06:29:25.869Z,42.70
2023-02-06T06:34:29.194Z,43.00
2023-02-06T06:39:32.087Z,47.70
2023-02-06T06:44:35.031Z,38.00
2023-02-06T06:49:37.899Z,47.10
2023-02-06T06:54:40.775Z,45.20
2023-02-06T06:59:43.669Z,67.60
2023-02-06T07:04:46.657Z,54.00
2023-02-06T07:09:49.598Z,49.60
2023-02-06T07:14:52.475Z,205.20
2023-02-06T07:19:55.589Z,48.80
2023-02-06T07:24:58.436Z,51.20
2023-02-06T07:30:01.283Z,51.10
2023-02-06T07:35:05.669Z,40.80
2023-02-06T07:40:09.335Z,44.60
2023-02-06T07:45:12.183Z,30.20
2023-02-06T07:50:15.059Z,46.90
2023-02-06T07:55:17.998Z,45.20
2023-02-06T08:00:21.119Z,38.90
2023-02-06T08:05:23.968Z,43.30
2023-02-06T08:10:27.496Z,42.90
2023-02-06T08:15:30.358Z,38.00
2023-02-06T08:20:33.282Z,42.00
2023-02-06T08:25:36.285Z,42.90
2023-02-06T08:30:39.405Z,37.20
2023-02-06T08:35:42.249Z,34.90
2023-02-06T08:40:45.076Z,40.60
2023-02-06T08:45:52.362Z,35.10
2023-02-06T08:51:04.293Z,42.10
2023-02-06T08:56:13.921Z,38.40
2023-02-06T09:01:16.870Z,43.50
2023-02-06T09:06:19.758Z,43.60
2023-02-06T09:11:24.905Z,47.80
2023-02-06T09:16:29.503Z,34.20
2023-02-06T09:21:35.800Z,45.50
2023-02-06T09:26:58.124Z,33.00
2023-02-06T09:32:01.931Z,46.20
2023-02-06T09:37:06.265Z,34.10
2023-02-06T09:42:39.143Z,36.60
2023-02-06T09:47:52.569Z,33.90
2023-02-06T09:53:13.770Z,27.90
2023-02-06T09:58:35.883Z,36.50
2023-02-06T10:04:05.430Z,38.90
2023-02-06T10:09:14.152Z,38.00
2023-02-06T10:14:32.368Z,39.30
2023-02-06T10:20:03.169Z,33.50
2023-02-06T10:25:20.698Z,37.80
2023-02-06T10:31:03.333Z,39.20
2023-02-06T10:36:21.354Z,36.90
2023-02-06T10:41:48.743Z,34.40
2023-02-06T10:46:55.035Z,33.90
2023-02-06T10:52:04.335Z,31.20
2023-02-06T10:57:19.941Z,46.10
2023-02-06T11:03:06.331Z,49.50
2023-02-06T11:08:21.579Z,35.20
2023-02-06T11:13:33.568Z,31.80
2023-02-06T11:18:41.714Z,34.30
2023-02-06T11:23:44.582Z,30.90
2023-02-06T11:29:08.809Z,34.10
2023-02-06T11:34:24.840Z,30.90
2023-02-06T11:39:33.941Z,30.30
2023-02-06T11:44:42.674Z,30.10
2023-02-06T11:49:45.514Z,44.70
2023-02-06T11:54:54.543Z,31.30
2023-02-06T12:00:02.229Z,40.10
2023-02-06T12:05:18.765Z,37.10
2023-02-06T12:10:25.432Z,30.70
2023-02-06T12:15:48.198Z,34.90
2023-02-06T12:21:24.623Z,28.90
2023-02-06T12:26:32.120Z,45.60
2023-02-06T12:31:59.507Z,33.00
2023-02-06T12:37:16.627Z,32.20
2023-02-06T12:42:34.482Z,39.90
2023-02-06T12:48:12.227Z,34.90
2023-02-06T12:53:20.652Z,24.50
2023-02-06T12:58:46.742Z,37.00
2023-02-06T13:03:59.271Z,40.20
2023-02-06T13:09:06.787Z,44.00
2023-02-06T13:14:25.917Z,30.70
2023-02-06T13:19:48.999Z,33.00
2023-02-06T13:24:52.009Z,29.70
2023-02-06T13:29:54.866Z,31.00
2023-02-06T13:35:22.256Z,28.90
2023-02-06T13:40:26.707Z,32.90
2023-02-06T13:45:53.937Z,31.30
2023-02-06T13:51:28.009Z,29.30
2023-02-06T13:57:34.706Z,48.80
2023-02-06T14:02:41.272Z,26.70
2023-02-06T14:08:47.961Z,27.50
2023-02-06T14:14:38.198Z,33.90
2023-02-06T14:19:53.965Z,29.40
2023-02-06T14:25:30.883Z,33.00
2023-02-06T14:31:20.487Z,30.60
2023-02-06T14:37:16.687Z,34.00
2023-02-06T14:42:45.127Z,29.50
2023-02-06T14:47:48.677Z,39.60
2023-02-06T14:53:08.050Z,38.00
2023-02-06T14:58:30.289Z,29.50
2023-02-06T15:03:33.213Z,27.00
2023-02-06T15:08:36.513Z,53.10
2023-02-06T15:13:39.403Z,222.20
2023-02-06T15:18:42.225Z,89.60
2023-02-06T15:24:44.017Z,75.90
2023-02-06T15:29:50.573Z,90.50
2023-02-06T15:34:53.519Z,129.30
2023-02-06T15:40:07.259Z,89.00
2023-02-06T15:50:28.609Z,56.50
2023-02-06T15:55:36.289Z,61.60
2023-02-06T16:00:39.678Z,53.70
2023-02-06T16:05:44.292Z,82.70
2023-02-06T16:10:59.424Z,79.90
2023-02-06T16:16:11.688Z,98.00
2023-02-06T16:21:17.489Z,95.30
2023-02-06T16:26:29.902Z,109.50
2023-02-06T16:31:37.555Z,128.90
2023-02-06T16:36:41.959Z,119.80
2023-02-06T16:41:51.594Z,118.30
2023-02-06T16:46:54.459Z,130.50
2023-02-06T16:51:57.573Z,172.40
2023-02-06T16:57:33.241Z,164.50
2023-02-06T17:02:36.878Z,457.60
2023-02-06T17:07:39.953Z,319.60
2023-02-06T17:12:45.207Z,206.80
2023-02-06T17:17:48.052Z,194.60
2023-02-06T17:22:51.020Z,139.60
2023-02-06T17:27:55.374Z,118.20
2023-02-06T17:32:58.211Z,178.40
2023-02-06T17:38:01.040Z,160.80
2023-02-06T17:43:04.857Z,144.20
2023-02-06T17:58:18.815Z,140.90
2023-02-06T18:03:21.666Z,144.30
2023-02-06T18:08:24.869Z,234.60
2023-02-06T18:13:28.616Z,242.60
2023-02-06T18:18:31.878Z,332.30
2023-02-06T18:23:35.011Z,354.00
2023-02-06T18:28:39.702Z,259.10
2023-02-06T18:33:42.541Z,191.40
2023-02-06T18:38:45.950Z,155.40
2023-02-06T18:43:48.803Z,146.30
2023-02-06T18:48:54.277Z,124.20
2023-02-06T18:53:59.000Z,136.90
2023-02-06T18:59:04.078Z,103.00
2023-02-06T19:04:06.895Z,148.60
2023-02-06T19:09:09.818Z,134.80
2023-02-06T19:14:16.972Z,126.70
2023-02-06T19:19:20.063Z,189.40
2023-02-06T19:24:23.574Z,215.80
2023-02-06T19:29:35.221Z,264.00
2023-02-06T19:34:41.042Z,278.90
2023-02-06T19:39:44.568Z,250.40
2023-02-06T19:44:51.915Z,248.20
2023-02-06T19:49:54.810Z,233.80
2023-02-06T19:54:57.632Z,238.80
2023-02-06T20:00:00.493Z,227.20
2023-02-06T20:05:03.789Z,212.50
2023-02-06T20:10:07.471Z,200.40
2023-02-06T20:15:10.656Z,219.60
2023-02-06T20:20:14.199Z,303.40
2023-02-06T20:25:17.455Z,286.90
2023-02-06T20:30:22.197Z,257.40
2023-02-06T20:35:25.595Z,289.80
2023-02-06T20:40:28.549Z,1049.00
2023-02-06T20:45:31.384Z,672.10
2023-02-06T20:50:34.777Z,260.30
2023-02-06T20:55:44.279Z,568.70
2023-02-06T21:00:47.825Z,438.00
2023-02-06T21:06:00.820Z,724.10
2023-02-06T21:11:03.793Z,554.80
2023-02-06T21:16:08.206Z,451.60
2023-02-06T21:21:14.396Z,343.60
2023-02-06T21:26:18.360Z,289.90
2023-02-06T21:36:39.700Z,123.70
2023-02-06T21:41:43.490Z,113.70
2023-02-06T21:46:46.435Z,117.30
2023-02-06T21:51:51.044Z,140.10
2023-02-06T21:56:54.958Z,162.70
2023-02-06T22:01:57.812Z,122.10
2023-02-06T22:07:00.678Z,138.70
2023-02-06T22:12:05.634Z,431.60
2023-02-06T22:17:08.510Z,232.60
2023-02-06T22:22:12.623Z,159.70
2023-02-06T22:27:16.877Z,1068.10
2023-02-06T22:32:20.154Z,699.70
2023-02-06T22:37:22.977Z,771.50
2023-02-06T22:42:25.869Z,173.20
2023-02-06T22:47:28.748Z,139.90
2023-02-06T22:52:51.746Z,83.70
2023-02-06T22:57:54.601Z,233.70
2023-02-06T23:02:57.447Z,121.70
2023-02-06T23:08:00.308Z,354.40
2023-02-06T23:13:03.373Z,307.40
2023-02-06T23:18:06.376Z,256.40
2023-02-06T23:23:09.623Z,211.10
2023-02-06T23:28:12.549Z,139.50
2023-02-06T23:33:15.760Z,81.80
2023-02-06T23:38:19.702Z,95.90
2023-02-06T23:48:25.397Z,64.30
2023-02-06T23:53:28.370Z,430.50
2023-02-06T23:58:31.217Z,366.90
